createdAt,value
2018-04-24T00:02:26.014Z,16.30
2018-04-24T00:04:53.648Z,16.30
2018-04-24T00:07:21.270Z,16.30
2018-04-24T00:09:50.212Z,16.30
2018-04-24T00:12:17.792Z,16.30
2018-04-24T00:14:45.479Z,16.30
2018-04-24T00:17:13.777Z,16.20
2018-04-24T00:19:42.162Z,16.20
2018-04-24T00:22:09.781Z,16.10
2018-04-24T00:24:37.354Z,16.20
2018-04-24T00:27:05.017Z,16.10
2018-04-24T00:29:32.604Z,16.10
2018-04-24T00:32:00.215Z,16.10
2018-04-24T00:34:28.050Z,16.10
2018-04-24T00:36:55.591Z,16.10
2018-04-24T00:39:23.177Z,16.10
2018-04-24T00:41:50.731Z,16.10
2018-04-24T00:44:18.280Z,16.10
2018-04-24T00:46:45.866Z,16.10
2018-04-24T00:49:13.411Z,16.00
2018-04-24T00:51:41.013Z,16.00
2018-04-24T00:54:08.597Z,16.00
2018-04-24T00:56:36.218Z,16.00
2018-04-24T00:59:03.800Z,16.00
2018-04-24T01:01:31.439Z,16.00
2018-04-24T01:03:59.018Z,16.00
2018-04-24T01:06:26.546Z,16.00
2018-04-24T01:08:54.155Z,15.90
2018-04-24T01:11:22.522Z,15.90
2018-04-24T01:13:50.156Z,15.90
2018-04-24T01:16:17.727Z,15.90
2018-04-24T01:18:45.323Z,15.90
2018-04-24T01:21:13.658Z,15.90
2018-04-24T01:23:41.292Z,15.90
2018-04-24T01:26:09.588Z,15.90
2018-04-24T01:28:37.168Z,15.90
2018-04-24T01:31:04.724Z,15.90
2018-04-24T01:33:32.279Z,15.90
2018-04-24T01:35:59.880Z,15.90
2018-04-24T01:38:27.426Z,15.90
2018-04-24T01:40:55.801Z,15.90
2018-04-24T01:43:23.333Z,15.80
2018-04-24T01:45:50.931Z,15.80
2018-04-24T01:48:18.454Z,15.80
2018-04-24T01:50:46.087Z,15.80
2018-04-24T01:53:13.654Z,15.80
2018-04-24T01:55:41.288Z,15.80
2018-04-24T01:58:09.629Z,15.70
2018-04-24T02:00:37.173Z,15.70
2018-04-24T02:03:04.746Z,15.70
2018-04-24T02:05:32.290Z,15.70
2018-04-24T02:07:59.879Z,15.70
2018-04-24T02:10:27.428Z,15.70
2018-04-24T02:12:55.000Z,15.60
2018-04-24T02:15:22.520Z,15.60
2018-04-24T02:17:50.079Z,15.60
2018-04-24T02:20:17.588Z,15.60
2018-04-24T02:22:45.140Z,15.60
2018-04-24T02:25:12.650Z,15.50
2018-04-24T02:27:40.199Z,15.60
2018-04-24T02:30:07.732Z,15.60
2018-04-24T02:32:36.013Z,15.70
2018-04-24T02:35:04.336Z,15.70
2018-04-24T02:37:31.888Z,15.70
2018-04-24T02:39:59.734Z,15.70
2018-04-24T02:42:27.237Z,15.80
2018-04-24T02:44:54.832Z,15.80
2018-04-24T02:47:22.348Z,15.80
2018-04-24T02:49:49.909Z,15.80
2018-04-24T02:52:17.420Z,15.80
2018-04-24T02:54:44.971Z,15.90
2018-04-24T02:57:13.280Z,15.90
2018-04-24T02:59:40.849Z,15.80
2018-04-24T03:02:08.369Z,15.90
2018-04-24T03:04:36.664Z,15.90
2018-04-24T03:07:04.254Z,15.90
2018-04-24T03:09:31.818Z,15.90
2018-04-24T03:11:59.379Z,15.90
2018-04-24T03:14:26.915Z,15.90
2018-04-24T03:16:54.479Z,16.00
2018-04-24T03:19:22.014Z,16.00
2018-04-24T03:21:49.632Z,16.00
2018-04-24T03:24:17.153Z,16.00
2018-04-24T03:26:44.699Z,16.00
2018-04-24T03:29:12.205Z,16.10
2018-04-24T03:31:39.786Z,16.10
2018-04-24T03:34:07.317Z,16.10
2018-04-24T03:36:34.847Z,16.10
2018-04-24T03:39:02.456Z,16.20
2018-04-24T03:41:29.963Z,16.20
2018-04-24T03:43:57.501Z,16.20
2018-04-24T03:46:25.036Z,16.20
2018-04-24T03:48:53.382Z,16.30
2018-04-24T03:51:20.912Z,16.20
2018-04-24T03:53:48.487Z,16.30
2018-04-24T03:56:16.020Z,16.30
2018-04-24T03:58:44.324Z,16.30
2018-04-24T04:01:11.828Z,16.30
2018-04-24T04:03:39.392Z,16.30
2018-04-24T04:06:06.927Z,16.40
2018-04-24T04:08:34.472Z,16.40
2018-04-24T04:11:02.020Z,16.40
2018-04-24T04:13:29.616Z,16.30
2018-04-24T04:15:57.205Z,16.30
2018-04-24T04:18:37.479Z,16.40
2018-04-24T04:21:16.860Z,16.40
2018-04-24T04:23:56.147Z,16.40
2018-04-24T04:26:24.468Z,16.40
2018-04-24T04:28:52.046Z,16.30
2018-04-24T04:31:19.909Z,16.40
2018-04-24T04:33:48.302Z,16.40
2018-04-24T04:36:15.857Z,16.50
2018-04-24T04:38:43.372Z,16.50
2018-04-24T04:41:10.924Z,16.50
2018-04-24T04:43:38.436Z,16.50
2018-04-24T04:46:06.012Z,16.50
2018-04-24T04:48:34.364Z,16.50
2018-04-24T04:51:01.953Z,16.50
2018-04-24T04:53:29.500Z,16.50
2018-04-24T04:55:57.075Z,16.60
2018-04-24T04:58:25.380Z,16.50
2018-04-24T05:00:52.968Z,16.50
2018-04-24T05:03:20.511Z,16.60
2018-04-24T05:05:48.164Z,16.60
2018-04-24T05:08:15.692Z,16.50
2018-04-24T05:10:43.779Z,16.60
2018-04-24T05:13:11.379Z,16.60
2018-04-24T05:15:38.956Z,16.60
2018-04-24T05:18:06.552Z,16.60
2018-04-24T05:20:34.106Z,16.60
2018-04-24T05:23:02.787Z,16.60
2018-04-24T05:25:31.142Z,16.60
2018-04-24T05:27:58.736Z,16.50
2018-04-24T05:30:26.307Z,16.60
2018-04-24T05:32:53.956Z,16.50
2018-04-24T05:35:21.535Z,16.60
2018-04-24T05:37:49.360Z,16.60
2018-04-24T05:40:17.030Z,16.60
2018-04-24T05:42:45.463Z,16.70
2018-04-24T05:45:13.168Z,16.60
2018-04-24T05:47:40.889Z,16.70
2018-04-24T05:50:08.559Z,16.70
2018-04-24T05:52:36.182Z,16.70
2018-04-24T05:55:03.860Z,16.70
2018-04-24T05:57:31.553Z,16.70
2018-04-24T05:59:59.238Z,16.70
2018-04-24T06:02:27.730Z,16.70
2018-04-24T06:04:55.400Z,16.70
2018-04-24T06:07:23.263Z,16.70
2018-04-24T06:09:51.002Z,16.80
2018-04-24T06:12:18.807Z,16.80
2018-04-24T06:14:46.673Z,16.80
2018-04-24T06:17:14.377Z,16.80
2018-04-24T06:19:42.121Z,16.80
2018-04-24T06:22:09.772Z,16.80
2018-04-24T06:24:37.437Z,16.80
2018-04-24T06:27:04.993Z,16.90
2018-04-24T06:29:32.683Z,16.90
2018-04-24T06:32:00.502Z,16.90
2018-04-24T06:34:28.380Z,16.90
2018-04-24T06:36:56.223Z,16.90
2018-04-24T06:39:23.970Z,16.90
2018-04-24T06:41:51.639Z,16.90
2018-04-24T06:44:20.136Z,16.90
2018-04-24T06:46:48.649Z,16.90
2018-04-24T06:49:16.343Z,16.90
2018-04-24T06:51:44.177Z,16.90
2018-04-24T06:54:11.906Z,16.90
2018-04-24T06:56:39.753Z,16.90
2018-04-24T06:59:07.357Z,16.90
2018-04-24T07:01:35.013Z,17.00
2018-04-24T07:04:05.293Z,17.00
2018-04-24T07:06:33.014Z,16.90
2018-04-24T07:09:01.466Z,17.00
2018-04-24T07:11:29.137Z,16.90
2018-04-24T07:13:57.571Z,17.10
2018-04-24T07:16:25.419Z,17.00
2018-04-24T07:18:53.119Z,17.10
2018-04-24T07:21:20.877Z,17.20
2018-04-24T07:23:48.447Z,17.20
2018-04-24T07:26:15.981Z,17.30
2018-04-24T07:28:43.652Z,17.40
2018-04-24T07:31:11.393Z,17.50
2018-04-24T07:33:39.241Z,17.50
2018-04-24T07:36:07.036Z,17.50
2018-04-24T07:38:34.929Z,17.60
2018-04-24T07:41:05.519Z,17.60
2018-04-24T07:43:33.282Z,17.60
2018-04-24T07:46:00.907Z,17.70
2018-04-24T07:48:28.533Z,17.70
2018-04-24T07:50:56.910Z,17.70
2018-04-24T07:53:24.651Z,17.80
2018-04-24T07:55:52.421Z,17.80
2018-04-24T07:58:20.320Z,17.90
2018-04-24T08:00:48.140Z,17.90
2018-04-24T08:03:15.794Z,17.90
2018-04-24T08:05:43.422Z,17.90
2018-04-24T08:08:11.103Z,18.00
2018-04-24T08:10:38.699Z,18.00
2018-04-24T08:13:06.290Z,18.10
2018-04-24T08:15:34.728Z,18.30
2018-04-24T08:18:02.368Z,18.20
2018-04-24T08:20:31.141Z,18.60
2018-04-24T08:22:58.793Z,18.50
2018-04-24T08:25:26.423Z,18.80
2018-04-24T08:27:54.063Z,19.10
2018-04-24T08:30:21.700Z,19.30
2018-04-24T08:32:50.083Z,20.00
2018-04-24T08:35:17.929Z,19.90
2018-04-24T08:37:45.728Z,20.20
2018-04-24T08:40:13.409Z,20.40
2018-04-24T08:42:41.011Z,20.60
2018-04-24T08:45:08.653Z,20.50
2018-04-24T08:47:36.233Z,20.60
2018-04-24T08:50:04.278Z,20.80
2018-04-24T08:52:31.951Z,20.80
2018-04-24T08:54:59.572Z,20.80
2018-04-24T08:57:27.258Z,20.70
2018-04-24T08:59:55.783Z,20.70
2018-04-24T09:02:23.580Z,20.70
2018-04-24T09:04:51.993Z,20.60
2018-04-24T09:07:19.746Z,20.60
2018-04-24T09:09:47.318Z,20.80
2018-04-24T09:12:14.993Z,20.90
2018-04-24T09:14:43.443Z,21.30
2018-04-24T09:17:11.183Z,21.20
2018-04-24T09:19:39.052Z,21.50
2018-04-24T09:22:06.767Z,21.70
2018-04-24T09:24:34.530Z,21.90
2018-04-24T09:27:02.394Z,22.10
2018-04-24T09:29:30.214Z,22.10
2018-04-24T09:31:58.049Z,22.10
2018-04-24T09:34:25.821Z,22.20
2018-04-24T09:36:53.761Z,22.30
2018-04-24T09:39:21.558Z,22.20
2018-04-24T09:41:49.441Z,22.10
2018-04-24T09:44:17.316Z,22.00
2018-04-24T09:46:45.125Z,21.80
2018-04-24T09:49:12.921Z,21.70
2018-04-24T09:51:40.764Z,21.80
2018-04-24T09:54:08.687Z,21.90
2018-04-24T09:56:36.511Z,22.00
2018-04-24T09:59:04.315Z,22.00
2018-04-24T10:01:31.935Z,22.30
2018-04-24T10:03:59.801Z,22.50
2018-04-24T10:06:27.603Z,22.80
2018-04-24T10:08:55.297Z,23.10
2018-04-24T10:11:23.077Z,23.30
2018-04-24T10:13:50.929Z,23.60
2018-04-24T10:16:19.911Z,23.60
2018-04-24T10:18:47.740Z,23.90
2018-04-24T10:21:15.551Z,24.00
2018-04-24T10:23:43.466Z,24.40
2018-04-24T10:26:11.196Z,24.50
2018-04-24T10:28:38.992Z,24.70
2018-04-24T10:31:06.884Z,24.80
2018-04-24T10:33:34.685Z,24.90
2018-04-24T10:36:02.286Z,25.00
2018-04-24T10:38:30.103Z,25.20
2018-04-24T10:40:57.942Z,25.20
2018-04-24T10:43:25.832Z,25.30
2018-04-24T10:45:53.797Z,25.20
2018-04-24T10:48:21.509Z,25.20
2018-04-24T10:50:49.221Z,25.00
2018-04-24T10:53:17.008Z,25.20
2018-04-24T10:55:44.709Z,25.20
2018-04-24T10:58:12.471Z,25.20
2018-04-24T11:00:41.181Z,24.90
2018-04-24T11:03:08.933Z,24.80
2018-04-24T11:05:37.022Z,24.80
2018-04-24T11:08:05.456Z,25.10
2018-04-24T11:10:33.704Z,25.30
2018-04-24T11:13:01.486Z,25.30
2018-04-24T11:15:29.337Z,25.30
2018-04-24T11:17:57.215Z,25.40
2018-04-24T11:20:25.013Z,25.70
2018-04-24T11:22:52.785Z,25.80
2018-04-24T11:25:20.658Z,25.80
2018-04-24T11:27:49.262Z,25.80
2018-04-24T11:30:17.089Z,25.70
2018-04-24T11:32:45.081Z,25.80
2018-04-24T11:35:12.935Z,25.90
2018-04-24T11:37:41.701Z,25.60
2018-04-24T11:40:09.609Z,25.50
2018-04-24T11:42:37.627Z,25.60
2018-04-24T11:45:05.439Z,25.70
2018-04-24T11:47:33.266Z,25.90
2018-04-24T11:50:01.185Z,26.10
2018-04-24T11:52:29.069Z,26.00
2018-04-24T11:54:56.896Z,26.00
2018-04-24T11:57:25.427Z,25.90
2018-04-24T11:59:53.048Z,25.90
2018-04-24T12:02:20.712Z,25.80
2018-04-24T12:04:49.312Z,25.70
2018-04-24T12:07:17.060Z,25.60
2018-04-24T12:09:44.878Z,25.80
2018-04-24T12:12:13.012Z,25.90
2018-04-24T12:14:40.770Z,26.00
2018-04-24T12:17:08.848Z,26.00
2018-04-24T12:19:36.588Z,26.20
2018-04-24T12:22:04.340Z,26.20
2018-04-24T12:24:32.627Z,26.40
2018-04-24T12:27:00.398Z,26.50
2018-04-24T12:29:28.932Z,26.40
2018-04-24T12:31:56.589Z,26.30
2018-04-24T12:34:24.236Z,26.50
2018-04-24T12:36:52.053Z,26.30
2018-04-24T12:39:19.776Z,26.30
2018-04-24T12:41:47.442Z,26.10
2018-04-24T12:44:15.307Z,26.30
2018-04-24T12:46:43.153Z,26.30
2018-04-24T12:49:10.921Z,26.20
2018-04-24T12:51:38.649Z,26.00
2018-04-24T12:54:06.648Z,25.80
2018-04-24T12:56:34.537Z,26.00
2018-04-24T12:59:02.470Z,26.00
2018-04-24T13:01:30.977Z,26.20
2018-04-24T13:03:58.791Z,26.20
2018-04-24T13:06:26.493Z,26.10
2018-04-24T13:08:54.324Z,26.20
2018-04-24T13:11:22.113Z,26.30
2018-04-24T13:13:49.813Z,26.50
2018-04-24T13:16:17.614Z,26.60
2018-04-24T13:18:45.420Z,26.50
2018-04-24T13:21:13.436Z,26.30
2018-04-24T13:23:41.218Z,26.20
2018-04-24T13:26:09.546Z,26.10
2018-04-24T13:28:38.637Z,26.30
2018-04-24T13:31:08.643Z,26.30
2018-04-24T13:33:36.462Z,26.40
2018-04-24T13:36:04.228Z,26.40
2018-04-24T13:38:32.081Z,26.20
2018-04-24T13:40:59.878Z,26.20
2018-04-24T13:43:27.766Z,26.30
2018-04-24T13:45:56.268Z,26.00
2018-04-24T13:48:24.082Z,26.00
2018-04-24T13:50:51.852Z,26.00
2018-04-24T13:53:19.781Z,26.00
2018-04-24T13:55:47.548Z,26.10
2018-04-24T13:58:15.214Z,25.80
2018-04-24T14:00:42.828Z,25.80
2018-04-24T14:03:10.593Z,25.70
2018-04-24T14:05:38.384Z,25.40
2018-04-24T14:08:06.274Z,25.40
2018-04-24T14:10:34.086Z,25.40
2018-04-24T14:13:01.916Z,25.30
2018-04-24T14:15:29.742Z,25.40
2018-04-24T14:17:57.844Z,25.40
2018-04-24T14:20:26.482Z,25.60
2018-04-24T14:22:54.267Z,25.60
2018-04-24T14:25:22.904Z,25.30
2018-04-24T14:27:50.683Z,25.30
2018-04-24T14:30:18.449Z,25.10
2018-04-24T14:32:46.151Z,25.20
2018-04-24T14:35:13.976Z,25.20
2018-04-24T14:37:42.632Z,25.20
2018-04-24T14:40:10.322Z,25.20
2018-04-24T14:42:38.139Z,25.10
2018-04-24T14:45:05.984Z,24.90
2018-04-24T14:47:33.824Z,24.80
2018-04-24T14:50:01.628Z,24.90
2018-04-24T14:52:29.464Z,24.70
2018-04-24T14:54:58.097Z,24.80
2018-04-24T14:57:25.800Z,24.70
2018-04-24T14:59:53.485Z,24.90
2018-04-24T15:02:21.178Z,25.00
2018-04-24T15:04:49.653Z,24.80
2018-04-24T15:07:18.099Z,24.70
2018-04-24T15:09:45.794Z,24.80
2018-04-24T15:12:13.671Z,24.90
2018-04-24T15:14:41.510Z,24.70
2018-04-24T15:17:09.269Z,24.60
2018-04-24T15:19:36.943Z,24.60
2018-04-24T15:22:04.783Z,24.50
2018-04-24T15:24:32.742Z,24.20
2018-04-24T15:27:01.251Z,24.20
2018-04-24T15:29:29.765Z,24.20
2018-04-24T15:31:57.485Z,24.20
2018-04-24T15:34:25.165Z,24.10
2018-04-24T15:36:52.783Z,24.10
2018-04-24T15:39:20.530Z,24.00
2018-04-24T15:41:48.396Z,23.90
2018-04-24T15:44:16.102Z,23.90
2018-04-24T15:46:43.841Z,24.00
2018-04-24T15:49:11.557Z,23.90
2018-04-24T15:51:39.301Z,23.90
2018-04-24T15:54:07.050Z,23.90
2018-04-24T15:56:34.747Z,23.90
2018-04-24T15:59:02.463Z,23.80
2018-04-24T16:01:30.220Z,23.70
2018-04-24T16:03:57.990Z,23.50
2018-04-24T16:06:25.760Z,23.50
2018-04-24T16:08:53.692Z,23.30
2018-04-24T16:11:21.355Z,23.20
2018-04-24T16:13:49.132Z,23.20
2018-04-24T16:16:16.804Z,23.10
2018-04-24T16:18:44.589Z,23.00
2018-04-24T16:21:12.516Z,23.00
2018-04-24T16:23:41.193Z,23.00
2018-04-24T16:26:09.032Z,22.90
2018-04-24T16:28:37.542Z,22.90
2018-04-24T16:31:05.274Z,22.80
2018-04-24T16:33:33.859Z,22.80
2018-04-24T16:36:01.593Z,22.70
2018-04-24T16:38:29.259Z,22.70
2018-04-24T16:40:57.223Z,22.70
2018-04-24T16:43:24.795Z,22.70
2018-04-24T16:45:52.393Z,22.60
2018-04-24T16:48:20.113Z,22.50
2018-04-24T16:50:47.847Z,22.50
2018-04-24T16:53:15.550Z,22.50
2018-04-24T16:55:44.308Z,22.40
2018-04-24T16:58:12.070Z,22.30
2018-04-24T17:00:39.920Z,22.30
2018-04-24T17:03:07.620Z,22.30
2018-04-24T17:05:35.988Z,22.10
2018-04-24T17:08:03.539Z,22.10
2018-04-24T17:10:31.169Z,22.10
2018-04-24T17:12:58.770Z,22.10
2018-04-24T17:15:26.405Z,22.00
2018-04-24T17:17:54.164Z,22.00
2018-04-24T17:20:21.851Z,21.90
2018-04-24T17:22:49.521Z,21.90
2018-04-24T17:25:17.277Z,21.90
2018-04-24T17:27:45.095Z,21.80
2018-04-24T17:30:13.466Z,21.70
2018-04-24T17:32:41.059Z,21.60
2018-04-24T17:35:08.782Z,21.60
2018-04-24T17:37:36.494Z,21.60
2018-04-24T17:40:04.575Z,21.50
2018-04-24T17:42:32.363Z,21.40
2018-04-24T17:44:59.972Z,21.30
2018-04-24T17:47:28.741Z,21.30
2018-04-24T17:49:56.684Z,21.20
2018-04-24T17:52:24.462Z,21.10
2018-04-24T17:54:53.334Z,20.90
2018-04-24T17:57:21.122Z,20.90
2018-04-24T17:59:48.775Z,20.80
2018-04-24T18:02:16.424Z,20.80
2018-04-24T18:04:44.173Z,20.70
2018-04-24T18:07:11.952Z,20.60
2018-04-24T18:09:39.575Z,20.50
2018-04-24T18:12:07.207Z,20.40
2018-04-24T18:14:35.735Z,20.20
2018-04-24T18:17:03.295Z,20.10
2018-04-24T18:19:31.047Z,20.10
2018-04-24T18:21:58.817Z,20.00
2018-04-24T18:24:26.575Z,19.90
2018-04-24T18:26:54.341Z,19.80
2018-04-24T18:29:22.169Z,19.60
2018-04-24T18:31:50.728Z,19.40
2018-04-24T18:34:18.582Z,19.30
2018-04-24T18:36:46.261Z,19.30
2018-04-24T18:39:14.038Z,19.20
2018-04-24T18:41:41.771Z,19.10
2018-04-24T18:44:09.450Z,19.00
2018-04-24T18:46:37.204Z,18.90
2018-04-24T18:49:04.804Z,18.80
2018-04-24T18:51:32.460Z,18.70
2018-04-24T18:54:00.086Z,18.70
2018-04-24T18:56:27.746Z,18.60
2018-04-24T18:58:55.479Z,18.50
2018-04-24T19:01:23.224Z,18.40
2018-04-24T19:03:51.774Z,18.30
2018-04-24T19:06:19.533Z,18.20
2018-04-24T19:08:47.324Z,18.20
2018-04-24T19:11:15.016Z,18.10
2018-04-24T19:13:42.567Z,18.00
2018-04-24T19:16:11.623Z,18.00
2018-04-24T19:18:45.002Z,17.90
2018-04-24T19:21:12.788Z,17.80
2018-04-24T19:23:41.357Z,17.50
2018-04-24T19:26:09.060Z,17.40
2018-04-24T19:28:36.654Z,17.40
2018-04-24T19:31:09.809Z,17.30
2018-04-24T19:33:37.567Z,17.30
2018-04-24T19:36:05.274Z,17.20
2018-04-24T19:38:33.106Z,17.20
2018-04-24T19:41:06.667Z,17.20
2018-04-24T19:43:35.166Z,17.10
2018-04-24T19:46:02.909Z,17.10
2018-04-24T19:48:36.208Z,17.10
2018-04-24T19:51:03.930Z,17.10
2018-04-24T19:53:32.405Z,17.00
2018-04-24T19:56:00.165Z,17.00
2018-04-24T19:58:27.892Z,17.00
2018-04-24T20:00:55.516Z,16.90
2018-04-24T20:03:23.257Z,16.90
2018-04-24T20:05:51.186Z,16.80
2018-04-24T20:08:19.517Z,16.70
2018-04-24T20:10:47.092Z,16.70
2018-04-24T20:13:14.751Z,16.60
2018-04-24T20:15:42.517Z,16.60
2018-04-24T20:18:10.339Z,16.60
2018-04-24T20:20:38.063Z,16.60
2018-04-24T20:23:05.862Z,16.50
2018-04-24T20:25:34.468Z,16.50
2018-04-24T20:28:02.297Z,16.40
2018-04-24T20:30:30.043Z,16.40
2018-04-24T20:32:57.923Z,16.40
2018-04-24T20:35:25.660Z,16.40
2018-04-24T20:37:53.413Z,16.40
2018-04-24T20:40:21.204Z,16.40
2018-04-24T20:42:49.100Z,16.30
2018-04-24T20:45:17.624Z,16.20
2018-04-24T20:47:45.368Z,16.20
2018-04-24T20:50:13.186Z,16.20
2018-04-24T20:52:40.958Z,16.20
2018-04-24T20:55:08.859Z,16.10
2018-04-24T20:57:36.581Z,16.20
2018-04-24T21:00:04.762Z,16.10
2018-04-24T21:02:33.431Z,16.00
2018-04-24T21:05:01.171Z,16.00
2018-04-24T21:07:28.736Z,16.00
2018-04-24T21:09:56.385Z,15.90
2018-04-24T21:12:23.932Z,15.90
2018-04-24T21:14:51.629Z,15.80
2018-04-24T21:17:22.603Z,15.80
2018-04-24T21:19:50.208Z,15.70
2018-04-24T21:22:17.786Z,15.60
2018-04-24T21:24:45.494Z,15.50
2018-04-24T21:27:14.088Z,15.60
2018-04-24T21:29:42.578Z,15.40
2018-04-24T21:32:10.337Z,15.40
2018-04-24T21:34:38.654Z,15.40
2018-04-24T21:37:06.472Z,15.40
2018-04-24T21:39:34.214Z,15.30
2018-04-24T21:42:01.949Z,15.20
2018-04-24T21:44:29.719Z,15.30
2018-04-24T21:46:57.292Z,15.20
2018-04-24T21:49:25.005Z,15.20
2018-04-24T21:51:52.608Z,15.30
2018-04-24T21:54:20.325Z,15.20
2018-04-24T21:56:48.100Z,15.20
2018-04-24T21:59:15.852Z,15.10
2018-04-24T22:01:43.646Z,15.20
2018-04-24T22:04:11.334Z,15.10
2018-04-24T22:06:38.988Z,15.20
2018-04-24T22:09:06.667Z,15.10
2018-04-24T22:11:34.363Z,15.10
2018-04-24T22:14:02.825Z,15.10
2018-04-24T22:16:30.418Z,15.10
2018-04-24T22:18:59.662Z,15.10
2018-04-24T22:21:27.338Z,15.10
2018-04-24T22:23:54.895Z,15.10
2018-04-24T22:26:22.469Z,15.10
2018-04-24T22:28:50.065Z,15.10
2018-04-24T22:31:17.730Z,15.00
2018-04-24T22:33:45.350Z,14.90
2018-04-24T22:36:13.030Z,14.90
2018-04-24T22:38:41.190Z,14.90
2018-04-24T22:41:08.944Z,14.90
2018-04-24T22:43:36.632Z,14.80
2018-04-24T22:46:05.125Z,14.80
2018-04-24T22:48:33.498Z,14.80
2018-04-24T22:51:01.833Z,14.80
2018-04-24T22:53:29.418Z,14.70
2018-04-24T22:55:56.977Z,14.80
2018-04-24T22:58:24.622Z,14.70
2018-04-24T23:00:52.945Z,14.60
2018-04-24T23:03:20.565Z,14.60
2018-04-24T23:05:48.109Z,14.60
2018-04-24T23:08:15.759Z,14.60
2018-04-24T23:10:55.152Z,14.50
